Time;durP1;ratioP1;P1;durP2;ratioP2;P2;SDS_P1;SDS_P2;PMS_P1;PMS_P2;Temp;Humidity;BMP_temperature;BMP_pressure;BME280_temperature;BME280_humidity;BME280_pressure;Samples;Min_cycle;Max_cycle;Signal;HPM_P1;HPM_P2
2021/12/15 00:01:24;;;;;;;54.47;29.48;;;9.20;99.90;;;;;;5040318;28;20030;-66
2021/12/15 00:03:50;;;;;;;53.00;28.50;;;9.20;99.90;;;;;;5039584;28;20050;-65
2021/12/15 00:06:18;;;;;;;56.17;30.15;;;9.10;99.90;;;;;;5040820;28;20056;-66
2021/12/15 00:08:47;;;;;;;51.38;28.52;;;9.20;99.90;;;;;;5055859;28;20124;-66
2021/12/15 00:11:14;;;;;;;53.42;29.88;;;9.20;99.90;;;;;;5040386;28;20092;-67
2021/12/15 00:13:41;;;;;;;54.95;29.38;;;9.20;99.90;;;;;;5040052;28;20048;-66
2021/12/15 00:16:09;;;;;;;55.45;28.73;;;9.20;99.90;;;;;;5040055;28;20084;-67
2021/12/15 00:18:36;;;;;;;50.35;28.90;;;9.20;99.90;;;;;;5039916;28;20049;-65
2021/12/15 00:21:03;;;;;;;59.42;29.35;;;9.30;99.90;;;;;;5039455;28;20056;-66
2021/12/15 00:23:30;;;;;;;53.20;29.00;;;9.40;99.90;;;;;;5039095;28;20076;-66
2021/12/15 00:25:56;;;;;;;51.03;27.65;;;9.30;99.90;;;;;;5039067;28;20363;-66
2021/12/15 00:28:22;;;;;;;52.95;28.42;;;9.30;99.90;;;;;;5039812;28;20021;-67
2021/12/15 00:30:48;;;;;;;52.78;28.83;;;9.30;99.90;;;;;;5039007;28;20105;-68
2021/12/15 00:33:14;;;;;;;51.50;27.85;;;9.30;99.90;;;;;;5022525;28;20033;-66
2021/12/15 00:35:40;;;;;;;50.53;27.77;;;9.30;99.90;;;;;;5039715;28;20021;-66
2021/12/15 00:38:07;;;;;;;52.10;28.48;;;9.30;99.90;;;;;;5039667;28;20025;-67
2021/12/15 00:40:33;;;;;;;47.45;26.95;;;9.40;99.90;;;;;;5039469;28;20312;-65
2021/12/15 00:42:59;;;;;;;50.97;28.40;;;9.30;99.90;;;;;;5039543;28;20124;-65
2021/12/15 00:45:25;;;;;;;45.97;25.83;;;9.30;99.90;;;;;;5039576;28;20104;-65
2021/12/15 00:47:52;;;;;;;49.67;27.67;;;9.30;99.90;;;;;;5038529;28;20149;-66
2021/12/15 00:50:21;;;;;;;47.67;26.60;;;9.30;99.90;;;;;;5022019;28;20053;-66
2021/12/15 00:52:48;;;;;;;51.35;27.10;;;9.30;99.90;;;;;;5039249;28;20022;-66
2021/12/15 00:55:19;;;;;;;47.42;27.02;;;9.30;99.90;;;;;;5038980;28;20128;-67
2021/12/15 00:57:46;;;;;;;47.38;26.45;;;9.30;99.90;;;;;;5022060;28;20034;-66
2021/12/15 01:00:18;;;;;;;47.63;25.85;;;9.30;99.90;;;;;;5037122;28;20316;-66
2021/12/15 01:02:44;;;;;;;45.83;26.48;;;9.30;99.90;;;;;;5038394;28;20057;-67
2021/12/15 01:05:14;;;;;;;46.20;26.80;;;9.30;99.90;;;;;;5038360;28;20357;-67
2021/12/15 01:07:40;;;;;;;44.72;25.45;;;9.40;99.90;;;;;;5038515;28;20061;-67
2021/12/15 01:10:08;;;;;;;48.00;26.25;;;9.30;99.90;;;;;;5038912;28;20047;-67
2021/12/15 01:20:45;;;;;;;49.60;26.40;;;9.20;99.90;;;;;;5038874;28;20049;-66
2021/12/15 01:23:14;;;;;;;50.30;28.10;;;9.20;99.90;;;;;;5039069;28;20038;-67
2021/12/15 01:25:41;;;;;;;52.28;27.40;;;9.20;99.90;;;;;;5038005;28;20286;-67
2021/12/15 01:28:08;;;;;;;48.75;27.45;;;9.30;99.90;;;;;;5038710;28;20088;-67
2021/12/15 01:30:38;;;;;;;50.25;28.08;;;9.30;99.90;;;;;;5037996;28;20400;-67
2021/12/15 01:33:05;;;;;;;51.05;27.58;;;9.30;99.90;;;;;;5037855;28;20026;-67
2021/12/15 01:35:34;;;;;;;56.45;28.15;;;9.30;99.90;;;;;;5038690;28;20031;-67
2021/12/15 01:37:59;;;;;;;52.72;27.13;;;9.30;99.90;;;;;;5037687;28;20025;-67
2021/12/15 01:40:37;;;;;;;53.83;28.05;;;9.30;99.90;;;;;;5037601;28;20428;-67
2021/12/15 01:43:13;;;;;;;52.42;27.52;;;9.20;99.90;;;;;;5038729;28;20026;-66
2021/12/15 01:48:25;;;;;;;60.88;28.08;;;9.10;99.90;;;;;;5037724;28;20084;-66
2021/12/15 01:50:51;;;;;;;51.83;26.83;;;9.10;99.90;;;;;;5037215;28;20060;-67
2021/12/15 01:53:18;;;;;;;53.70;28.40;;;9.10;99.90;;;;;;5037373;28;20073;-68
2021/12/15 01:55:45;;;;;;;55.63;28.23;;;9.20;99.90;;;;;;5037282;28;20032;-66
2021/12/15 01:58:11;;;;;;;58.40;28.13;;;9.30;99.90;;;;;;5036279;28;20462;-67
2021/12/15 02:00:44;;;;;;;55.80;28.60;;;9.30;99.90;;;;;;5036043;28;20286;-67
2021/12/15 02:03:10;;;;;;;52.35;27.85;;;9.20;99.90;;;;;;5038139;28;20048;-67
2021/12/15 02:05:36;;;;;;;58.53;28.73;;;9.20;99.90;;;;;;5037812;28;20025;-67
2021/12/15 02:08:04;;;;;;;55.40;28.05;;;9.30;99.90;;;;;;5038285;28;20033;-67
2021/12/15 02:10:33;;;;;;;56.38;28.73;;;9.30;99.90;;;;;;5020555;28;20076;-66
2021/12/15 02:13:02;;;;;;;50.40;26.55;;;9.30;99.90;;;;;;5037130;28;20025;-68
2021/12/15 02:15:36;;;;;;;59.97;28.88;;;9.30;99.90;;;;;;5037038;28;20033;-66
2021/12/15 02:18:05;;;;;;;54.72;28.35;;;9.20;99.90;;;;;;5036918;28;20301;-67
2021/12/15 02:20:38;;;;;;;58.95;28.77;;;9.20;99.90;;;;;;5037593;28;20036;-67
2021/12/15 02:23:07;;;;;;;53.00;27.58;;;9.30;99.90;;;;;;5036967;28;20076;-67
2021/12/15 02:25:33;;;;;;;55.53;27.77;;;9.20;99.90;;;;;;5020814;28;20420;-67
2021/12/15 02:28:01;;;;;;;58.92;28.95;;;9.20;99.90;;;;;;5037548;28;20063;-67
2021/12/15 02:33:34;;;;;;;55.78;27.83;;;9.10;99.90;;;;;;5037500;28;20108;-65
2021/12/15 02:38:42;;;;;;;58.00;27.80;;;9.10;99.90;;;;;;5037282;28;20037;-65
2021/12/15 02:41:19;;;;;;;55.08;27.58;;;9.10;99.90;;;;;;5036594;28;20057;-66
2021/12/15 02:44:09;;;;;;;53.88;27.80;;;9.20;99.90;;;;;;5036638;28;20056;-66
2021/12/15 02:46:36;;;;;;;55.40;28.27;;;9.20;99.90;;;;;;5037287;28;20040;-66
2021/12/15 02:49:06;;;;;;;53.55;28.08;;;9.20;99.90;;;;;;5036233;28;20085;-66
2021/12/15 02:51:32;;;;;;;50.40;25.65;;;9.30;99.90;;;;;;5037212;28;20041;-67
2021/12/15 02:53:59;;;;;;;53.72;27.52;;;9.30;99.90;;;;;;5037097;28;20308;-66
2021/12/15 02:56:25;;;;;;;51.95;27.88;;;9.30;99.90;;;;;;5037323;28;20037;-66
2021/12/15 02:59:00;;;;;;;54.42;27.95;;;9.30;99.90;;;;;;5036422;28;20036;-66
2021/12/15 03:01:55;;;;;;;55.22;26.58;;;9.20;99.90;;;;;;5036297;28;20297;-67
2021/12/15 03:07:05;;;;;;;54.88;27.35;;;9.20;99.90;;;;;;5036934;28;20052;-66
2021/12/15 03:17:55;;;;;;;51.70;27.08;;;9.20;99.90;;;;;;5037261;28;20120;-66
2021/12/15 03:20:22;;;;;;;52.17;26.17;;;9.30;99.90;;;;;;5036773;28;20033;-66
2021/12/15 03:22:50;;;;;;;46.78;25.08;;;9.30;99.90;;;;;;5019685;28;20107;-66
2021/12/15 03:25:16;;;;;;;54.80;26.25;;;9.40;99.90;;;;;;5036788;28;20083;-66
2021/12/15 03:33:30;;;;;;;45.85;24.33;;;9.20;99.90;;;;;;5036648;28;20401;-67
2021/12/15 03:36:10;;;;;;;49.45;25.38;;;9.30;99.90;;;;;;5036776;28;20033;-67
2021/12/15 03:38:38;;;;;;;50.75;25.45;;;9.30;99.90;;;;;;5036678;28;20037;-66
2021/12/15 03:41:06;;;;;;;52.58;26.02;;;9.20;99.90;;;;;;5036011;28;20033;-66
2021/12/15 03:43:33;;;;;;;52.25;25.50;;;9.20;99.90;;;;;;5036773;28;20075;-67
2021/12/15 03:46:03;;;;;;;52.58;26.20;;;9.10;99.90;;;;;;5036703;28;20160;-68
2021/12/15 03:48:32;;;;;;;54.47;26.23;;;9.20;99.90;;;;;;5036488;28;20049;-67
2021/12/15 03:50:58;;;;;;;52.47;25.35;;;9.20;99.90;;;;;;5036654;28;20292;-68
2021/12/15 03:53:25;;;;;;;51.95;25.13;;;9.10;99.90;;;;;;5036765;28;20036;-67
2021/12/15 03:55:53;;;;;;;53.40;25.52;;;9.10;99.90;;;;;;5018762;28;20034;-68
2021/12/15 03:58:23;;;;;;;55.17;26.13;;;9.10;99.90;;;;;;5035370;28;20400;-68
2021/12/15 04:00:59;;;;;;;50.88;25.42;;;9.10;99.90;;;;;;5036393;28;20045;-66
2021/12/15 04:03:30;;;;;;;48.55;25.60;;;9.20;99.90;;;;;;5035695;28;20036;-65
2021/12/15 04:05:58;;;;;;;48.53;24.17;;;9.20;99.90;;;;;;5035671;28;20296;-65
2021/12/15 04:08:26;;;;;;;51.50;24.98;;;9.30;99.90;;;;;;5036637;28;20017;-68
2021/12/15 04:10:52;;;;;;;50.13;24.60;;;9.20;99.90;;;;;;5036305;28;20041;-68
2021/12/15 04:13:18;;;;;;;48.10;24.60;;;9.20;99.90;;;;;;5035674;28;20072;-68
2021/12/15 04:15:52;;;;;;;50.90;25.90;;;9.30;99.90;;;;;;5039032;28;20183;-67
2021/12/15 04:18:18;;;;;;;52.35;25.42;;;9.20;99.90;;;;;;5039402;28;20462;-65
2021/12/15 04:20:44;;;;;;;49.97;24.25;;;9.30;99.90;;;;;;5022644;28;20314;-67
2021/12/15 04:23:12;;;;;;;50.97;25.20;;;9.30;99.90;;;;;;5039138;28;20175;-67
2021/12/15 04:25:40;;;;;;;48.42;24.80;;;9.30;99.90;;;;;;5040094;28;20025;-65
2021/12/15 04:28:14;;;;;;;49.83;25.98;;;9.30;99.90;;;;;;5038855;28;20025;-66
2021/12/15 04:30:48;;;;;;;50.95;25.70;;;9.30;99.90;;;;;;5039369;28;20304;-68
2021/12/15 04:33:31;;;;;;;52.58;25.70;;;9.30;99.90;;;;;;5039799;28;20038;-68
2021/12/15 04:35:59;;;;;;;51.38;25.85;;;9.30;99.90;;;;;;5039006;28;20152;-68
2021/12/15 04:38:28;;;;;;;47.95;24.80;;;9.30;99.90;;;;;;5039721;28;20484;-68
2021/12/15 04:40:55;;;;;;;48.50;25.70;;;9.30;99.90;;;;;;5039694;28;20029;-68
2021/12/15 04:43:21;;;;;;;48.72;25.77;;;9.30;99.90;;;;;;5039537;28;20025;-68
2021/12/15 04:45:47;;;;;;;48.15;25.15;;;9.30;99.90;;;;;;5039020;28;20076;-68
2021/12/15 04:48:14;;;;;;;46.83;24.17;;;9.40;99.90;;;;;;5038630;28;20344;-68
2021/12/15 04:50:41;;;;;;;44.17;24.38;;;9.40;99.90;;;;;;5039462;28;20034;-68
2021/12/15 04:53:08;;;;;;;44.95;24.13;;;9.40;99.90;;;;;;5038706;28;20045;-68
2021/12/15 04:55:36;;;;;;;46.47;25.77;;;9.50;99.90;;;;;;5039325;28;20046;-68
2021/12/15 04:58:05;;;;;;;47.30;25.50;;;9.50;99.90;;;;;;5039342;28;20045;-68
2021/12/15 05:00:35;;;;;;;49.33;25.23;;;9.50;99.90;;;;;;5038362;28;20052;-69
2021/12/15 05:03:03;;;;;;;45.45;25.27;;;9.50;99.90;;;;;;5039527;28;20021;-67
2021/12/15 05:05:29;;;;;;;51.00;25.60;;;9.60;99.90;;;;;;5038489;28;20107;-68
2021/12/15 05:07:56;;;;;;;48.25;26.73;;;9.60;99.90;;;;;;5038442;28;20117;-68
2021/12/15 05:10:22;;;;;;;49.58;25.35;;;9.50;99.90;;;;;;5038348;28;20029;-68
2021/12/15 05:12:49;;;;;;;46.30;26.05;;;9.60;99.90;;;;;;5021905;28;20033;-68
2021/12/15 05:15:16;;;;;;;49.00;25.83;;;9.70;99.90;;;;;;5038296;28;20337;-67
2021/12/15 05:17:42;;;;;;;44.15;25.33;;;9.60;99.90;;;;;;5039329;28;20033;-68
2021/12/15 05:20:09;;;;;;;44.58;25.35;;;9.60;99.90;;;;;;5038849;28;20044;-68
2021/12/15 05:22:38;;;;;;;46.97;26.55;;;9.60;99.90;;;;;;5039284;28;20305;-68
2021/12/15 05:25:06;;;;;;;43.85;25.45;;;9.60;99.90;;;;;;5038875;28;20029;-68
2021/12/15 05:27:32;;;;;;;45.60;25.17;;;9.60;99.90;;;;;;5037922;28;20304;-70
2021/12/15 05:29:58;;;;;;;44.17;25.10;;;9.60;99.90;;;;;;5038022;28;20021;-67
2021/12/15 05:32:24;;;;;;;46.42;26.23;;;9.50;99.90;;;;;;5038694;28;20041;-68
2021/12/15 05:34:54;;;;;;;45.97;26.15;;;9.60;99.90;;;;;;5038666;28;20029;-68
2021/12/15 05:37:22;;;;;;;47.35;26.05;;;9.60;99.90;;;;;;5037934;28;20328;-68
2021/12/15 05:39:49;;;;;;;47.20;27.10;;;9.50;99.90;;;;;;5038493;28;20037;-69
2021/12/15 05:42:15;;;;;;;50.88;27.88;;;9.50;99.90;;;;;;5038519;28;20300;-69
2021/12/15 05:44:41;;;;;;;48.55;26.92;;;9.60;99.90;;;;;;5021337;28;20030;-68
2021/12/15 05:47:08;;;;;;;48.25;27.05;;;9.60;99.90;;;;;;5037735;28;20120;-69
2021/12/15 05:49:35;;;;;;;45.53;26.23;;;9.50;99.90;;;;;;5037539;28;20053;-69
2021/12/15 05:52:01;;;;;;;47.78;26.88;;;9.50;99.90;;;;;;5038287;28;20029;-68
2021/12/15 05:54:27;;;;;;;50.85;28.42;;;9.50;99.90;;;;;;5038259;28;20412;-68
2021/12/15 05:56:53;;;;;;;49.75;28.70;;;9.60;99.90;;;;;;5038237;28;20029;-68
2021/12/15 05:59:19;;;;;;;50.53;27.77;;;9.60;99.90;;;;;;5037432;28;20044;-68
2021/12/15 06:01:45;;;;;;;47.67;27.85;;;9.60;99.90;;;;;;5038224;28;20155;-68
2021/12/15 06:04:13;;;;;;;49.53;28.55;;;9.60;99.90;;;;;;5054116;28;20376;-68
2021/12/15 06:06:39;;;;;;;51.75;28.27;;;9.50;99.90;;;;;;5037394;28;20030;-68
2021/12/15 06:09:07;;;;;;;56.17;29.17;;;9.50;99.90;;;;;;5037355;28;20381;-68
2021/12/15 06:11:34;;;;;;;53.50;29.45;;;9.50;99.90;;;;;;5037900;28;20048;-69
2021/12/15 06:14:00;;;;;;;54.20;29.65;;;9.50;99.90;;;;;;5037947;28;20025;-70
2021/12/15 06:16:25;;;;;;;50.28;29.35;;;9.60;99.90;;;;;;5037828;28;20035;-70
2021/12/15 06:18:52;;;;;;;50.13;27.92;;;9.70;99.90;;;;;;5037738;28;20026;-69
2021/12/15 06:21:21;;;;;;;48.97;28.05;;;9.70;99.90;;;;;;5037829;28;20099;-69
2021/12/15 06:23:48;;;;;;;48.30;28.30;;;9.70;99.90;;;;;;5037133;28;20026;-69
2021/12/15 06:26:16;;;;;;;51.47;28.30;;;9.70;99.90;;;;;;5037770;28;20021;-67
2021/12/15 06:28:43;;;;;;;50.97;28.95;;;9.70;99.90;;;;;;5037386;28;20083;-69
2021/12/15 06:31:11;;;;;;;49.67;28.33;;;9.70;99.90;;;;;;5037618;28;20037;-68
2021/12/15 06:33:39;;;;;;;47.88;27.75;;;9.70;99.90;;;;;;5037520;28;20049;-68
2021/12/15 06:36:07;;;;;;;46.17;27.52;;;9.80;99.90;;;;;;5037504;28;20328;-69
2021/12/15 06:38:40;;;;;;;45.88;27.77;;;9.80;99.90;;;;;;5037376;28;20051;-69
2021/12/15 06:41:07;;;;;;;46.35;27.83;;;9.80;99.90;;;;;;5037475;28;20032;-69
2021/12/15 06:43:35;;;;;;;44.95;27.23;;;9.80;99.90;;;;;;5037374;28;20032;-68
2021/12/15 06:59:26;;;;;;;43.47;25.90;;;9.70;99.90;;;;;;5036268;28;20053;-68
2021/12/15 07:01:53;;;;;;;43.10;26.52;;;9.70;99.90;;;;;;5019917;28;20025;-69
2021/12/15 07:04:21;;;;;;;45.20;26.67;;;9.80;99.90;;;;;;5037542;28;20049;-69
2021/12/15 07:06:49;;;;;;;45.05;25.45;;;9.80;99.90;;;;;;5036239;28;20033;-69
2021/12/15 07:09:15;;;;;;;47.53;26.80;;;9.80;99.90;;;;;;5020026;28;20308;-68
2021/12/15 07:11:41;;;;;;;43.95;26.63;;;9.90;99.90;;;;;;5019755;28;20037;-69
2021/12/15 07:14:08;;;;;;;42.50;26.27;;;9.90;99.90;;;;;;5019921;28;20048;-68
2021/12/15 07:16:39;;;;;;;41.78;26.08;;;9.90;99.90;;;;;;5036931;28;20045;-68
2021/12/15 07:21:36;;;;;;;45.53;25.63;;;9.70;99.90;;;;;;5019633;28;20308;-68
2021/12/15 07:24:02;;;;;;;47.22;26.55;;;9.70;99.90;;;;;;5036712;28;20439;-68
2021/12/15 07:26:28;;;;;;;46.42;25.90;;;9.70;99.90;;;;;;5036099;28;20034;-67
2021/12/15 07:28:54;;;;;;;41.40;26.02;;;9.80;99.90;;;;;;5019575;28;20232;-68
2021/12/15 07:31:21;;;;;;;41.03;25.52;;;9.90;99.90;;;;;;5036015;28;20025;-61
2021/12/15 07:33:46;;;;;;;40.03;25.05;;;10.20;99.90;;;;;;5019632;28;20124;-67
2021/12/15 07:36:13;;;;;;;38.13;24.60;;;10.20;99.90;;;;;;5019607;28;20172;-67
2021/12/15 07:38:43;;;;;;;40.75;24.42;;;10.00;99.90;;;;;;5036144;28;20030;-67
2021/12/15 07:41:23;;;;;;;37.30;22.80;;;10.10;99.90;;;;;;5036219;28;20361;-67
2021/12/15 07:43:50;;;;;;;38.00;24.58;;;10.00;99.90;;;;;;5035909;28;20099;-66
2021/12/15 07:46:16;;;;;;;39.00;24.50;;;10.00;99.90;;;;;;5036254;28;20495;-67
2021/12/15 07:48:42;;;;;;;39.13;24.33;;;10.00;99.90;;;;;;5035852;28;20128;-66
2021/12/15 07:51:10;;;;;;;37.65;24.15;;;10.00;99.90;;;;;;5040104;28;20034;-67
2021/12/15 07:53:38;;;;;;;35.47;24.17;;;9.90;99.90;;;;;;5040660;28;20021;-66
2021/12/15 07:56:04;;;;;;;37.47;23.95;;;10.00;99.90;;;;;;5039987;28;20084;-66
2021/12/15 07:58:30;;;;;;;41.55;25.45;;;9.90;99.90;;;;;;5023317;28;20022;-66
2021/12/15 08:00:59;;;;;;;41.17;24.55;;;9.80;99.90;;;;;;5039737;28;20033;-66
2021/12/15 08:03:26;;;;;;;40.15;25.70;;;9.80;99.90;;;;;;5039975;28;20084;-66
2021/12/15 08:05:53;;;;;;;41.08;25.83;;;9.90;99.90;;;;;;5040272;28;20036;-66
2021/12/15 08:08:19;;;;;;;38.58;25.30;;;9.90;99.90;;;;;;5040219;28;20037;-66
2021/12/15 08:10:46;;;;;;;39.88;25.23;;;10.00;99.90;;;;;;5039401;28;20041;-66
2021/12/15 08:13:15;;;;;;;41.13;25.65;;;10.00;99.90;;;;;;5039983;28;20033;-65
2021/12/15 08:15:42;;;;;;;40.63;25.88;;;10.00;99.90;;;;;;5039788;28;20064;-66
2021/12/15 08:18:08;;;;;;;43.03;25.40;;;9.90;99.90;;;;;;5039250;28;20041;-66
2021/12/15 08:20:35;;;;;;;41.30;25.70;;;9.90;99.90;;;;;;5022757;28;20083;-66
2021/12/15 08:23:02;;;;;;;40.97;25.13;;;10.00;99.90;;;;;;5022905;28;20113;-66
2021/12/15 08:25:29;;;;;;;43.22;25.15;;;10.00;99.90;;;;;;5039987;28;20033;-65
2021/12/15 08:27:55;;;;;;;38.17;24.65;;;10.00;99.90;;;;;;5022686;28;20029;-66
2021/12/15 08:30:25;;;;;;;39.90;24.88;;;10.00;99.90;;;;;;5039925;28;20033;-67
2021/12/15 08:32:55;;;;;;;42.70;26.13;;;9.90;99.90;;;;;;5022643;28;20320;-65
2021/12/15 08:35:24;;;;;;;42.72;26.15;;;9.90;99.90;;;;;;5022550;28;20052;-66
2021/12/15 08:37:50;;;;;;;42.40;25.80;;;9.90;99.90;;;;;;5038888;28;20040;-66
2021/12/15 08:40:19;;;;;;;43.38;25.92;;;9.90;99.90;;;;;;5039491;28;20037;-64
2021/12/15 08:42:45;;;;;;;46.40;26.75;;;9.90;99.90;;;;;;5022439;28;20025;-67
2021/12/15 08:45:12;;;;;;;44.33;25.90;;;10.00;99.90;;;;;;5006091;28;20021;-66
2021/12/15 08:47:37;;;;;;;43.42;26.30;;;9.90;99.90;;;;;;5022319;28;20021;-67
2021/12/15 08:50:07;;;;;;;45.63;27.30;;;9.90;99.90;;;;;;5038619;28;20183;-67
2021/12/15 08:52:33;;;;;;;42.67;26.52;;;9.90;99.90;;;;;;5038781;28;20351;-66
2021/12/15 08:55:00;;;;;;;45.67;26.25;;;9.90;99.90;;;;;;5038787;28;20331;-66
2021/12/15 08:57:25;;;;;;;44.65;26.73;;;10.10;99.90;;;;;;5022192;28;20052;-67
2021/12/15 08:59:51;;;;;;;42.92;26.33;;;10.10;99.90;;;;;;5022011;28;20125;-65
2021/12/15 09:02:18;;;;;;;44.50;26.67;;;10.10;99.90;;;;;;5038047;28;20359;-66
2021/12/15 09:04:44;;;;;;;40.83;25.08;;;10.10;99.90;;;;;;5039764;28;20037;-65
2021/12/15 09:07:10;;;;;;;42.40;25.17;;;10.00;99.90;;;;;;5022048;28;20195;-66
2021/12/15 09:09:36;;;;;;;42.17;26.23;;;10.00;99.90;;;;;;5039181;28;20037;-66
2021/12/15 09:12:03;;;;;;;42.03;26.02;;;10.00;99.90;;;;;;5039142;28;20400;-66
2021/12/15 09:14:29;;;;;;;43.00;26.35;;;10.00;99.90;;;;;;5039626;28;20030;-66
2021/12/15 09:16:58;;;;;;;42.70;25.67;;;10.00;99.90;;;;;;5021817;28;20040;-66
2021/12/15 09:19:24;;;;;;;41.60;26.20;;;10.00;99.90;;;;;;5038157;28;20064;-66
2021/12/15 09:21:52;;;;;;;46.15;26.00;;;10.10;99.90;;;;;;5021691;28;20048;-66
2021/12/15 09:24:20;;;;;;;40.67;24.88;;;10.20;99.90;;;;;;5038195;28;20025;-65
2021/12/15 09:26:46;;;;;;;41.10;25.92;;;10.10;99.90;;;;;;5021627;28;20412;-65
2021/12/15 09:29:13;;;;;;;43.45;25.63;;;10.20;99.90;;;;;;5038893;28;20300;-66
2021/12/15 09:31:39;;;;;;;39.72;24.55;;;10.30;99.90;;;;;;5037963;28;20033;-65
2021/12/15 09:34:07;;;;;;;39.33;24.35;;;10.40;99.90;;;;;;5021032;28;20029;-66
2021/12/15 09:36:34;;;;;;;41.08;24.52;;;10.30;99.90;;;;;;5038363;28;20393;-66
2021/12/15 09:39:08;;;;;;;39.58;23.98;;;10.40;99.90;;;;;;5038177;28;20033;-67
2021/12/15 09:41:34;;;;;;;36.85;24.88;;;10.50;99.90;;;;;;5038638;28;20033;-67
2021/12/15 09:44:07;;;;;;;40.20;23.50;;;10.60;99.90;;;;;;5038645;28;20026;-66
2021/12/15 09:46:51;;;;;;;39.00;23.70;;;10.70;99.90;;;;;;5037992;28;20367;-67
2021/12/15 10:02:00;;;;;;;35.72;23.17;;;10.80;99.90;;;;;;5037575;28;20037;-67
2021/12/15 10:06:25;;;;;;;34.22;23.05;;;10.80;99.90;;;;;;5037930;28;20037;-67
2021/12/15 10:11:47;;;;;;;34.50;22.60;;;10.80;99.90;;;;;;5037983;28;20058;-66
2021/12/15 10:19:51;;;;;;;31.45;21.70;;;11.30;99.90;;;;;;5037587;28;20315;-67
2021/12/15 10:25:12;;;;;;;34.83;22.75;;;11.00;99.90;;;;;;5036759;28;20033;-67
2021/12/15 10:27:49;;;;;;;33.95;22.27;;;11.10;99.90;;;;;;5020316;28;20278;-68
2021/12/15 10:30:32;;;;;;;31.75;21.63;;;11.00;99.90;;;;;;5037403;28;20029;-66
2021/12/15 10:33:08;;;;;;;35.63;21.63;;;11.00;99.90;;;;;;5020297;28;20349;-67
2021/12/15 10:35:40;;;;;;;35.42;21.70;;;11.00;99.90;;;;;;5037839;28;20071;-66
2021/12/15 10:38:42;;;;;;;33.05;21.60;;;10.80;99.90;;;;;;5036470;28;20033;-67
2021/12/15 10:41:19;;;;;;;31.23;21.38;;;10.60;99.90;;;;;;5037263;28;20040;-66
2021/12/15 10:43:51;;;;;;;31.02;21.33;;;10.60;99.90;;;;;;5037329;28;20025;-67
2021/12/15 10:46:19;;;;;;;32.22;21.88;;;10.70;99.90;;;;;;5020190;28;20025;-67
2021/12/15 10:48:56;;;;;;;31.85;21.85;;;10.60;99.90;;;;;;5036414;28;20435;-66
2021/12/15 10:51:36;;;;;;;30.45;21.17;;;10.60;99.90;;;;;;5037486;28;20033;-66
2021/12/15 10:54:05;;;;;;;31.98;22.15;;;10.60;99.90;;;;;;5037542;28;20368;-66
2021/12/15 10:56:35;;;;;;;34.42;21.63;;;10.60;99.90;;;;;;5037259;28;20022;-66
2021/12/15 10:59:07;;;;;;;31.33;21.05;;;10.60;99.90;;;;;;5037126;28;20079;-66
2021/12/15 11:01:41;;;;;;;;;;;10.70;99.90;;;;;;5037519;28;20029;-67
2021/12/15 11:04:36;;;;;;;32.58;20.83;;;10.80;99.90;;;;;;5037047;28;19996;-66
2021/12/15 11:07:08;;;;;;;29.38;20.50;;;10.70;99.90;;;;;;5019633;28;20060;-66
2021/12/15 11:09:39;;;;;;;32.00;21.08;;;10.80;99.90;;;;;;5036360;28;20037;-66
2021/12/15 11:12:05;;;;;;;32.22;20.38;;;10.90;99.90;;;;;;5036279;28;20091;-66
2021/12/15 11:14:37;;;;;;;29.80;20.63;;;11.00;99.90;;;;;;5036214;28;20427;-66
2021/12/15 11:17:14;;;;;;;27.67;20.02;;;11.00;99.90;;;;;;5036327;28;20038;-67
2021/12/15 11:19:49;;;;;;;30.10;20.77;;;11.10;99.90;;;;;;5037007;28;20033;-66
2021/12/15 11:22:38;;;;;;;28.42;20.20;;;11.20;99.90;;;;;;5036369;28;20071;-66
2021/12/15 11:25:08;;;;;;;25.67;19.27;;;11.00;99.90;;;;;;5035453;28;20026;-66
2021/12/15 11:27:34;;;;;;;28.05;19.35;;;10.90;99.90;;;;;;5037137;28;20121;-65
2021/12/15 11:30:00;;;;;;;27.48;19.55;;;11.00;99.90;;;;;;5037374;28;20095;-67
2021/12/15 11:32:42;;;;;;;25.90;18.73;;;10.90;99.90;;;;;;5036116;28;20029;-67
2021/12/15 11:35:16;;;;;;;30.75;19.08;;;11.10;99.90;;;;;;5035997;28;20048;-64
2021/12/15 11:37:47;;;;;;;27.60;18.10;;;11.20;99.90;;;;;;5019555;28;20033;-61
2021/12/15 11:40:15;;;;;;;24.10;18.33;;;11.30;99.90;;;;;;5035919;28;20132;-65
2021/12/15 11:42:43;;;;;;;25.60;18.45;;;11.40;99.90;;;;;;5036667;28;20021;-64
2021/12/15 11:45:12;;;;;;;25.13;18.27;;;11.30;99.90;;;;;;5036031;28;20408;-66
2021/12/15 11:47:37;;;;;;;25.83;18.35;;;11.40;99.90;;;;;;5036534;28;20037;-66
2021/12/15 11:50:18;;;;;;;27.20;18.15;;;11.60;99.90;;;;;;5052484;28;20049;-65
2021/12/15 11:52:47;;;;;;;30.05;19.00;;;11.40;99.90;;;;;;5036192;28;20041;-65
2021/12/15 11:55:30;;;;;;;25.17;18.83;;;11.20;99.90;;;;;;5036604;28;20030;-66
2021/12/15 11:57:57;;;;;;;26.10;18.95;;;11.30;99.90;;;;;;5036619;28;20025;-65
2021/12/15 12:00:27;;;;;;;24.20;18.40;;;11.10;99.90;;;;;;5019616;28;20060;-66
2021/12/15 12:02:56;;;;;;;25.15;18.30;;;11.10;99.90;;;;;;5036467;28;20032;-66
2021/12/15 12:05:27;;;;;;;29.13;18.38;;;11.30;99.90;;;;;;5036438;28;20040;-66
2021/12/15 12:07:58;;;;;;;24.73;18.67;;;11.30;99.90;;;;;;5019333;28;20293;-66
2021/12/15 12:10:31;;;;;;;26.20;18.25;;;11.30;99.90;;;;;;5036456;28;20095;-66
2021/12/15 12:13:09;;;;;;;25.45;18.58;;;11.30;99.90;;;;;;5036623;28;20044;-66
2021/12/15 12:15:38;;;;;;;23.58;17.45;;;11.40;99.90;;;;;;5035671;28;20048;-66
2021/12/15 12:18:07;;;;;;;25.42;18.08;;;11.60;99.90;;;;;;5036272;28;20302;-66
2021/12/15 12:20:46;;;;;;;28.45;17.98;;;11.60;99.90;;;;;;5036162;28;20289;-66
2021/12/15 12:23:20;;;;;;;26.52;17.90;;;11.70;99.90;;;;;;5036411;28;20081;-66
2021/12/15 12:25:51;;;;;;;24.13;17.90;;;11.90;99.90;;;;;;5035473;28;20082;-65
2021/12/15 12:28:26;;;;;;;24.08;17.42;;;11.60;99.90;;;;;;5035823;28;20029;-66
2021/12/15 12:31:01;;;;;;;24.23;17.70;;;11.30;99.90;;;;;;5018912;28;20033;-65
2021/12/15 12:33:29;;;;;;;21.67;17.45;;;11.40;99.90;;;;;;5036283;28;20033;-66
2021/12/15 12:36:03;;;;;;;22.35;17.73;;;11.60;99.90;;;;;;5037548;28;20021;-66
2021/12/15 12:38:32;;;;;;;24.95;17.63;;;11.40;99.90;;;;;;5039289;28;20033;-66
2021/12/15 12:41:02;;;;;;;25.17;17.67;;;11.40;99.90;;;;;;5038916;28;20033;-65
2021/12/15 12:43:32;;;;;;;25.17;17.40;;;11.10;99.90;;;;;;5039226;28;20389;-65
2021/12/15 12:46:20;;;;;;;27.08;19.38;;;11.00;99.90;;;;;;5039722;28;20139;-67
2021/12/15 12:49:28;;;;;;;27.40;18.40;;;11.20;99.90;;;;;;5039481;28;20037;-66
2021/12/15 13:00:28;;;;;;;26.13;18.05;;;11.60;99.90;;;;;;5039869;28;20030;-65
2021/12/15 13:03:10;;;;;;;24.83;17.60;;;11.50;99.90;;;;;;5038506;28;20026;-65
2021/12/15 13:05:38;;;;;;;25.95;17.45;;;11.40;99.90;;;;;;5039308;28;20033;-64
2021/12/15 13:08:08;;;;;;;23.48;17.60;;;11.40;99.90;;;;;;5039532;28;20267;-64
2021/12/15 13:10:55;;;;;;;27.98;18.23;;;11.40;99.90;;;;;;5038403;28;20052;-64
2021/12/15 13:13:25;;;;;;;28.02;18.15;;;11.30;99.90;;;;;;5038682;28;20049;-66
2021/12/15 13:15:54;;;;;;;26.92;17.50;;;11.20;99.90;;;;;;5038992;28;20042;-66
2021/12/15 13:18:21;;;;;;;22.08;17.42;;;11.30;99.90;;;;;;5038599;28;20056;-65
2021/12/15 13:21:00;;;;;;;23.63;17.23;;;11.30;99.90;;;;;;5038243;28;20305;-67
2021/12/15 13:24:08;;;;;;;22.65;17.90;;;11.30;99.90;;;;;;5039088;28;20053;-65
2021/12/15 13:29:52;;;;;;;23.83;17.33;;;11.10;99.90;;;;;;5038060;28;20038;-66
2021/12/15 13:32:20;;;;;;;25.95;17.92;;;11.20;99.90;;;;;;5037952;28;20033;-65
2021/12/15 13:34:49;;;;;;;24.35;17.63;;;11.20;99.90;;;;;;5038930;28;20112;-65
2021/12/15 13:37:49;;;;;;;24.35;17.35;;;11.20;99.90;;;;;;5037950;28;20034;-65
2021/12/15 13:40:35;;;;;;;26.73;18.45;;;11.40;99.90;;;;;;5038696;28;20029;-67
2021/12/15 13:43:08;;;;;;;22.92;17.63;;;11.50;99.90;;;;;;5038837;28;20017;-67
2021/12/15 13:45:34;;;;;;;;;;;11.50;99.90;;;;;;5022707;28;20036;-66
2021/12/15 13:48:00;;;;;;;;;;;11.30;99.90;;;;;;5037595;28;19909;-66
2021/12/15 13:50:29;;;;;;;;;;;11.20;99.90;;;;;;5038643;28;20015;-64
2021/12/15 13:52:59;;;;;;;;;;;11.10;99.90;;;;;;5038699;28;19920;-63
2021/12/15 13:55:30;;;;;;;;;;;11.10;99.90;;;;;;5037948;28;19908;-63
2021/12/15 13:58:14;;;;;;;;;;;11.20;99.90;;;;;;5037949;28;19909;-63
2021/12/15 14:00:46;;;;;;;;;;;11.20;99.90;;;;;;5037833;28;19952;-65
2021/12/15 14:03:29;;;;;;;;;;;11.10;99.90;;;;;;5038562;28;19919;-65
2021/12/15 14:06:15;;;;;;;;;;;11.20;99.90;;;;;;5038538;28;19909;-66
2021/12/15 14:08:49;;;;;;;;;;;11.20;99.90;;;;;;5037705;28;20188;-66
2021/12/15 14:11:17;;;;;;;;;;;11.20;99.90;;;;;;5038423;28;19913;-66
2021/12/15 14:13:48;;;;;;;;;;;11.10;99.90;;;;;;5038426;28;19909;-65
2021/12/15 14:16:27;;;;;;;;;;;10.90;99.90;;;;;;5037637;28;20291;-66
2021/12/15 14:18:52;;;;;;;;;;;10.90;99.90;;;;;;5038201;28;19909;-65